Time;durP1;ratioP1;P1;durP2;ratioP2;P2;SDS_P1;SDS_P2;PMS_P1;PMS_P2;Temp;Humidity;BMP_temperature;BMP_pressure;BME280_temperature;BME280_humidity;BME280_pressure;Samples;Min_cycle;Max_cycle;Signal;HPM_P1;HPM_P2
2022/11/09 00:01:16;;;;;;;1.85;0.70;;;;;;;;;;4980601;28;20097;-92
2022/11/09 00:03:41;;;;;;;3.05;0.70;;;;;;;;;;4976454;28;20050;-91
2022/11/09 00:06:06;;;;;;;2.47;0.73;;;;;;;;;;4976288;28;20042;-92
2022/11/09 00:08:32;;;;;;;1.08;0.52;;;;;;;;;;4976156;28;20065;-93
2022/11/09 00:11:02;;;;;;;0.77;0.40;;;;;;;;;;4993348;28;20045;-92
2022/11/09 00:13:27;;;;;;;5.70;0.60;;;;;;;;;;4982694;28;20106;-93
2022/11/09 00:15:57;;;;;;;1.77;0.65;;;;;;;;;;4977987;28;20179;-92
2022/11/09 00:18:22;;;;;;;1.90;0.80;;;;;;;;;;4992201;28;20047;-92
2022/11/09 00:20:48;;;;;;;1.83;0.70;;;;;;;;;;4980312;28;20061;-93
2022/11/09 00:23:14;;;;;;;1.88;0.70;;;;;;;;;;4975826;28;20074;-94
2022/11/09 00:25:39;;;;;;;1.15;0.65;;;;;;;;;;4974206;28;20047;-93
2022/11/09 00:28:05;;;;;;;2.03;0.60;;;;;;;;;;4976389;28;20046;-93
2022/11/09 00:30:30;;;;;;;1.42;0.75;;;;;;;;;;4976150;28;20062;-92
2022/11/09 00:32:56;;;;;;;1.13;0.70;;;;;;;;;;4977922;28;20051;-95
2022/11/09 00:35:21;;;;;;;1.00;0.55;;;;;;;;;;4976620;28;20030;-92
2022/11/09 00:37:46;;;;;;;1.02;0.60;;;;;;;;;;4977226;28;20438;-93
2022/11/09 00:40:12;;;;;;;0.68;0.50;;;;;;;;;;4972842;28;20398;-92
2022/11/09 00:42:37;;;;;;;1.58;0.80;;;;;;;;;;4984301;28;20035;-90
2022/11/09 00:45:03;;;;;;;1.17;0.70;;;;;;;;;;4980269;28;20122;-91
2022/11/09 00:47:28;;;;;;;2.03;0.70;;;;;;;;;;4977260;28;20430;-90
2022/11/09 00:49:54;;;;;;;1.45;0.65;;;;;;;;;;4967640;28;20501;-91
2022/11/09 00:52:19;;;;;;;1.15;0.60;;;;;;;;;;4977941;28;20037;-89
2022/11/09 00:54:45;;;;;;;0.98;0.55;;;;;;;;;;4978329;28;20042;-89
2022/11/09 00:57:11;;;;;;;1.10;0.60;;;;;;;;;;4981837;28;20038;-90
2022/11/09 00:59:36;;;;;;;1.27;0.45;;;;;;;;;;4994890;28;20041;-91
2022/11/09 01:02:02;;;;;;;1.45;0.60;;;;;;;;;;4976872;28;20043;-90
2022/11/09 01:04:27;;;;;;;1.70;0.70;;;;;;;;;;4973631;28;20089;-90
2022/11/09 01:06:53;;;;;;;1.20;0.60;;;;;;;;;;4980471;28;20097;-89
2022/11/09 01:09:18;;;;;;;1.30;0.57;;;;;;;;;;4994833;28;20419;-90
2022/11/09 01:11:43;;;;;;;1.02;0.55;;;;;;;;;;4976085;28;20042;-90
2022/11/09 01:14:09;;;;;;;0.75;0.55;;;;;;;;;;4976833;28;20490;-90
2022/11/09 01:16:35;;;;;;;0.95;0.47;;;;;;;;;;4978270;28;20121;-89
2022/11/09 01:19:01;;;;;;;1.70;0.55;;;;;;;;;;4976345;28;20050;-90
2022/11/09 01:21:27;;;;;;;1.27;0.50;;;;;;;;;;4975438;28;20101;-91
2022/11/09 01:23:53;;;;;;;0.88;0.50;;;;;;;;;;4988748;28;20434;-92
2022/11/09 01:26:19;;;;;;;1.20;0.47;;;;;;;;;;4985098;28;20494;-93
2022/11/09 01:28:44;;;;;;;0.90;0.50;;;;;;;;;;4975851;28;20031;-91
2022/11/09 01:31:12;;;;;;;1.90;0.77;;;;;;;;;;4980930;28;20046;-90
2022/11/09 01:33:37;;;;;;;1.77;0.70;;;;;;;;;;4976312;28;20066;-89
2022/11/09 01:36:16;;;;;;;3.17;0.68;;;;;;;;;;4974674;28;20431;-90
2022/11/09 01:38:42;;;;;;;0.70;0.43;;;;;;;;;;4990617;28;20092;-91
2022/11/09 01:41:11;;;;;;;1.05;0.60;;;;;;;;;;4978487;28;20035;-91
2022/11/09 01:43:37;;;;;;;1.35;0.45;;;;;;;;;;4974262;28;20045;-91
2022/11/09 01:46:17;;;;;;;1.30;0.63;;;;;;;;;;4991438;28;20038;-92
2022/11/09 01:48:55;;;;;;;0.98;0.47;;;;;;;;;;4993955;28;20039;-92
2022/11/09 01:51:40;;;;;;;2.40;0.50;;;;;;;;;;4986765;28;20038;-91
2022/11/09 01:54:34;;;;;;;0.93;0.50;;;;;;;;;;4974194;28;20380;-90
2022/11/09 01:57:03;;;;;;;2.17;0.70;;;;;;;;;;4986749;28;20050;-90
2022/11/09 01:59:32;;;;;;;1.02;0.50;;;;;;;;;;4974073;28;20276;-90
2022/11/09 02:01:58;;;;;;;0.90;0.50;;;;;;;;;;4987475;28;20034;-93
2022/11/09 02:04:45;;;;;;;0.82;0.50;;;;;;;;;;4977563;28;20039;-92
2022/11/09 02:07:10;;;;;;;4.45;0.77;;;;;;;;;;4974449;28;20138;-93
2022/11/09 02:09:50;;;;;;;3.03;0.60;;;;;;;;;;4973648;28;20121;-91
2022/11/09 02:12:17;;;;;;;0.98;0.45;;;;;;;;;;4990841;28;20055;-92
2022/11/09 02:14:43;;;;;;;0.95;0.40;;;;;;;;;;4983453;28;20047;-91
2022/11/09 02:17:08;;;;;;;1.70;0.50;;;;;;;;;;5003798;28;20058;-91
2022/11/09 02:19:34;;;;;;;0.80;0.50;;;;;;;;;;4977687;28;20039;-90
2022/11/09 02:21:59;;;;;;;0.90;0.30;;;;;;;;;;4987083;28;20042;-92
2022/11/09 02:24:25;;;;;;;0.93;0.43;;;;;;;;;;4974838;28;20129;-92
2022/11/09 02:26:52;;;;;;;1.13;0.47;;;;;;;;;;4985632;28;20049;-93
2022/11/09 02:29:31;;;;;;;0.75;0.40;;;;;;;;;;4974596;28;20053;-92
2022/11/09 02:32:02;;;;;;;0.38;0.30;;;;;;;;;;4988041;28;20081;-92
2022/11/09 02:34:27;;;;;;;1.02;0.50;;;;;;;;;;4997522;28;20081;-93
2022/11/09 02:36:53;;;;;;;0.75;0.55;;;;;;;;;;4980791;28;20047;-93
2022/11/09 02:39:24;;;;;;;0.73;0.40;;;;;;;;;;4992232;28;20458;-94
2022/11/09 02:41:53;;;;;;;0.40;0.32;;;;;;;;;;4978221;28;20046;-93
2022/11/09 02:44:18;;;;;;;1.42;0.65;;;;;;;;;;5015189;28;20030;-92
2022/11/09 02:46:44;;;;;;;1.08;0.55;;;;;;;;;;4986282;28;20109;-92
2022/11/09 02:49:10;;;;;;;1.00;0.50;;;;;;;;;;4993235;28;20045;-92
2022/11/09 02:51:35;;;;;;;1.00;0.60;;;;;;;;;;4979378;28;20081;-91
2022/11/09 02:54:01;;;;;;;1.65;0.60;;;;;;;;;;5016050;28;20034;-91
2022/11/09 02:56:26;;;;;;;0.63;0.50;;;;;;;;;;4986984;28;20506;-90
2022/11/09 02:58:52;;;;;;;1.05;0.50;;;;;;;;;;4997076;28;20050;-90
2022/11/09 03:01:17;;;;;;;0.65;0.40;;;;;;;;;;4986237;28;20395;-89
2022/11/09 03:03:42;;;;;;;0.88;0.40;;;;;;;;;;4969225;28;20055;-90
2022/11/09 03:06:08;;;;;;;1.23;0.52;;;;;;;;;;4985605;28;20041;-90
2022/11/09 03:08:33;;;;;;;2.25;0.50;;;;;;;;;;4986031;28;20035;-89
2022/11/09 03:10:59;;;;;;;0.55;0.38;;;;;;;;;;4979116;28;20503;-91
2022/11/09 03:13:24;;;;;;;1.05;0.50;;;;;;;;;;4977364;28;20041;-89
2022/11/09 03:15:50;;;;;;;0.88;0.50;;;;;;;;;;4982434;28;20039;-90
2022/11/09 03:18:15;;;;;;;1.17;0.40;;;;;;;;;;4977748;28;20094;-90
2022/11/09 03:20:41;;;;;;;2.83;0.60;;;;;;;;;;4992070;28;20046;-90
2022/11/09 03:23:06;;;;;;;1.20;0.52;;;;;;;;;;4976270;28;20423;-90
2022/11/09 03:25:32;;;;;;;0.93;0.50;;;;;;;;;;4977311;28;20043;-90
2022/11/09 03:28:01;;;;;;;1.17;0.52;;;;;;;;;;4981559;28;20142;-89
2022/11/09 03:30:27;;;;;;;1.25;0.63;;;;;;;;;;4984369;28;20055;-92
2022/11/09 03:33:02;;;;;;;1.23;0.52;;;;;;;;;;4986385;28;20130;-92
2022/11/09 03:35:28;;;;;;;1.02;0.50;;;;;;;;;;4976956;28;20077;-93
2022/11/09 03:37:53;;;;;;;0.40;0.40;;;;;;;;;;4986297;28;20459;-93
2022/11/09 03:40:19;;;;;;;0.77;0.50;;;;;;;;;;4984074;28;20394;-94
2022/11/09 03:42:46;;;;;;;0.82;0.50;;;;;;;;;;4982679;28;20035;-93
2022/11/09 03:45:12;;;;;;;1.08;0.55;;;;;;;;;;4964184;28;20090;-93
2022/11/09 03:47:45;;;;;;;0.77;0.50;;;;;;;;;;4987354;28;20046;-93
2022/11/09 03:50:11;;;;;;;1.38;0.50;;;;;;;;;;4982218;28;20034;-92
2022/11/09 03:52:37;;;;;;;0.43;0.40;;;;;;;;;;4976433;28;20047;-93
2022/11/09 03:55:03;;;;;;;1.25;0.40;;;;;;;;;;4976533;28;20471;-93
2022/11/09 03:57:29;;;;;;;0.50;0.32;;;;;;;;;;5005668;28;20039;-93
2022/11/09 03:59:54;;;;;;;0.47;0.32;;;;;;;;;;4995619;28;20045;-92
2022/11/09 04:02:20;;;;;;;0.63;0.40;;;;;;;;;;4987506;28;20026;-91
2022/11/09 04:04:45;;;;;;;0.40;0.30;;;;;;;;;;4981673;28;20056;-92
2022/11/09 04:07:10;;;;;;;0.93;0.40;;;;;;;;;;4977178;28;20047;-91
2022/11/09 04:09:36;;;;;;;1.90;0.63;;;;;;;;;;4977282;28;20066;-93
2022/11/09 04:12:03;;;;;;;4.78;0.50;;;;;;;;;;4979339;28;20039;-91
2022/11/09 04:14:28;;;;;;;0.95;0.50;;;;;;;;;;4987725;28;20053;-92
2022/11/09 04:16:54;;;;;;;1.17;0.50;;;;;;;;;;4981273;28;20034;-91
2022/11/09 04:19:19;;;;;;;1.35;0.40;;;;;;;;;;4976398;28;20046;-89
2022/11/09 04:21:44;;;;;;;0.52;0.30;;;;;;;;;;4975731;28;20050;-90
2022/11/09 04:24:10;;;;;;;0.52;0.32;;;;;;;;;;4996205;28;20536;-93
2022/11/09 04:26:35;;;;;;;0.20;0.20;;;;;;;;;;4980305;28;20053;-91
2022/11/09 04:29:00;;;;;;;0.80;0.43;;;;;;;;;;4981978;28;20094;-90
2022/11/09 04:31:26;;;;;;;1.35;0.45;;;;;;;;;;4954869;28;20134;-92
2022/11/09 04:33:51;;;;;;;1.30;0.45;;;;;;;;;;4952775;28;20039;-92
2022/11/09 04:36:17;;;;;;;0.50;0.30;;;;;;;;;;4939127;28;20529;-92
2022/11/09 04:38:42;;;;;;;0.30;0.30;;;;;;;;;;4957717;28;20050;-94
2022/11/09 04:41:08;;;;;;;0.80;0.52;;;;;;;;;;4951201;28;20042;-91
2022/11/09 04:43:33;;;;;;;0.70;0.30;;;;;;;;;;4961262;28;20055;-91
2022/11/09 04:46:03;;;;;;;0.55;0.30;;;;;;;;;;4966305;28;20483;-91
2022/11/09 04:48:32;;;;;;;0.70;0.40;;;;;;;;;;4965307;28;20038;-91
2022/11/09 04:51:01;;;;;;;0.52;0.40;;;;;;;;;;4964081;28;20043;-93
2022/11/09 04:53:27;;;;;;;1.52;0.30;;;;;;;;;;4959237;28;20158;-90
2022/11/09 04:55:52;;;;;;;0.43;0.30;;;;;;;;;;4962511;28;20439;-91
2022/11/09 04:58:18;;;;;;;0.43;0.32;;;;;;;;;;4966001;28;20147;-90
2022/11/09 05:00:43;;;;;;;0.43;0.30;;;;;;;;;;4963191;28;20031;-90
2022/11/09 05:03:09;;;;;;;0.93;0.40;;;;;;;;;;4980890;28;20694;-91
2022/11/09 05:05:36;;;;;;;1.02;0.40;;;;;;;;;;4995556;28;20042;-94
2022/11/09 05:08:01;;;;;;;0.65;0.30;;;;;;;;;;4995172;28;20467;-93
2022/11/09 05:10:27;;;;;;;0.75;0.30;;;;;;;;;;4992327;28;20048;-96
2022/11/09 05:12:59;;;;;;;0.30;0.30;;;;;;;;;;4983369;28;20442;-94
2022/11/09 05:15:25;;;;;;;0.45;0.35;;;;;;;;;;4980059;28;20034;-92
2022/11/09 05:17:51;;;;;;;0.20;0.20;;;;;;;;;;4973065;28;20041;-93
2022/11/09 05:20:16;;;;;;;1.65;0.35;;;;;;;;;;4991230;28;20455;-92
2022/11/09 05:25:26;;;;;;;0.45;0.30;;;;;;;;;;4982039;28;20135;-93
2022/11/09 05:27:52;;;;;;;0.40;0.40;;;;;;;;;;4975244;28;20064;-93
2022/11/09 05:30:17;;;;;;;0.70;0.40;;;;;;;;;;4972286;28;20090;-93
2022/11/09 05:32:43;;;;;;;0.45;0.30;;;;;;;;;;4978613;28;20050;-93
2022/11/09 05:35:08;;;;;;;0.10;0.10;;;;;;;;;;4971579;28;20189;-93
2022/11/09 05:37:34;;;;;;;0.43;0.35;;;;;;;;;;4975864;28;20425;-92
2022/11/09 05:39:59;;;;;;;0.30;0.30;;;;;;;;;;4974779;28;20027;-92
2022/11/09 05:42:25;;;;;;;0.10;0.10;;;;;;;;;;4976704;28;20046;-92
2022/11/09 05:44:50;;;;;;;0.20;0.20;;;;;;;;;;4973383;28;20142;-93
2022/11/09 05:47:15;;;;;;;0.30;0.30;;;;;;;;;;4972949;28;20074;-92
2022/11/09 05:49:41;;;;;;;0.20;0.20;;;;;;;;;;4951299;28;20487;-92
2022/11/09 05:52:06;;;;;;;0.55;0.40;;;;;;;;;;4971452;28;20369;-91
2022/11/09 05:54:32;;;;;;;0.77;0.30;;;;;;;;;;4974143;28;20037;-94
2022/11/09 05:56:57;;;;;;;0.63;0.38;;;;;;;;;;4976301;28;20034;-94
2022/11/09 05:59:23;;;;;;;0.43;0.25;;;;;;;;;;4975603;28;20042;-94
2022/11/09 06:01:48;;;;;;;0.20;0.20;;;;;;;;;;4969947;28;20055;-93
2022/11/09 06:04:14;;;;;;;0.30;0.30;;;;;;;;;;4974072;28;20435;-94
2022/11/09 06:06:39;;;;;;;1.08;0.40;;;;;;;;;;4979367;28;20054;-93
2022/11/09 06:09:05;;;;;;;0.47;0.30;;;;;;;;;;4979386;28;20093;-92
2022/11/09 06:11:30;;;;;;;1.30;0.43;;;;;;;;;;4976198;28;20054;-92
2022/11/09 06:13:56;;;;;;;3.50;0.40;;;;;;;;;;4978474;28;20066;-92
2022/11/09 06:16:22;;;;;;;0.73;0.40;;;;;;;;;;4977783;28;20062;-91
2022/11/09 06:18:48;;;;;;;3.22;0.40;;;;;;;;;;4980652;28;20133;-92
2022/11/09 06:21:13;;;;;;;0.47;0.38;;;;;;;;;;4994293;28;20185;-92
2022/11/09 06:23:39;;;;;;;0.52;0.28;;;;;;;;;;4997837;28;20030;-93
2022/11/09 06:26:07;;;;;;;0.73;0.30;;;;;;;;;;4992156;28;20121;-93
2022/11/09 06:28:33;;;;;;;0.70;0.30;;;;;;;;;;4994616;28;20041;-92
2022/11/09 06:30:59;;;;;;;0.40;0.38;;;;;;;;;;4992134;28;20050;-93
2022/11/09 06:33:25;;;;;;;0.60;0.40;;;;;;;;;;4981178;28;20065;-91
2022/11/09 06:35:51;;;;;;;0.60;0.40;;;;;;;;;;4975134;28;20109;-95
2022/11/09 06:38:17;;;;;;;3.13;0.20;;;;;;;;;;4986261;28;20467;-93
2022/11/09 06:40:42;;;;;;;0.40;0.30;;;;;;;;;;4977952;28;20035;-93
2022/11/09 06:43:08;;;;;;;1.02;0.20;;;;;;;;;;4978372;28;20038;-94
2022/11/09 06:45:34;;;;;;;0.25;0.25;;;;;;;;;;4997138;28;20035;-93
2022/11/09 06:48:01;;;;;;;0.20;0.20;;;;;;;;;;5020245;28;20034;-91
2022/11/09 06:50:29;;;;;;;0.30;0.30;;;;;;;;;;4982646;28;20093;-95
2022/11/09 06:52:59;;;;;;;0.30;0.30;;;;;;;;;;4961853;28;20535;-96
2022/11/09 06:55:26;;;;;;;0.60;0.40;;;;;;;;;;4976994;28;20034;-94
2022/11/09 06:57:52;;;;;;;0.20;0.20;;;;;;;;;;4978085;28;20039;-92
2022/11/09 07:00:18;;;;;;;1.50;0.47;;;;;;;;;;4987900;28;20069;-90
2022/11/09 07:02:43;;;;;;;3.08;0.30;;;;;;;;;;4983767;28;20046;-92
2022/11/09 07:05:09;;;;;;;0.30;0.30;;;;;;;;;;4977557;28;20522;-91
2022/11/09 07:07:34;;;;;;;2.15;0.30;;;;;;;;;;4983544;28;20121;-91
2022/11/09 07:10:00;;;;;;;0.20;0.20;;;;;;;;;;4993895;28;20132;-91
2022/11/09 07:12:25;;;;;;;0.47;0.20;;;;;;;;;;4980820;28;20034;-92
2022/11/09 07:14:51;;;;;;;1.55;0.30;;;;;;;;;;4979257;28;20041;-92
2022/11/09 07:17:16;;;;;;;0.38;0.30;;;;;;;;;;4981886;28;20091;-90
2022/11/09 07:19:42;;;;;;;1.42;0.40;;;;;;;;;;4979450;28;20069;-89
2022/11/09 07:22:07;;;;;;;0.82;0.50;;;;;;;;;;4981836;28;20363;-91
2022/11/09 07:24:32;;;;;;;0.47;0.22;;;;;;;;;;4990241;28;20524;-91
2022/11/09 07:26:58;;;;;;;0.63;0.40;;;;;;;;;;4976923;28;20054;-91
2022/11/09 07:29:23;;;;;;;0.30;0.30;;;;;;;;;;4977381;28;20049;-88
2022/11/09 07:31:49;;;;;;;0.73;0.30;;;;;;;;;;4986707;28;20054;-87
2022/11/09 07:34:14;;;;;;;0.43;0.30;;;;;;;;;;4982400;28;20459;-87
2022/11/09 07:36:40;;;;;;;0.30;0.30;;;;;;;;;;4974752;28;20387;-88
2022/11/09 07:39:06;;;;;;;0.30;0.30;;;;;;;;;;4980649;28;20150;-88
2022/11/09 07:41:31;;;;;;;0.38;0.20;;;;;;;;;;4975379;28;20490;-87
2022/11/09 07:43:57;;;;;;;2.30;0.40;;;;;;;;;;4975723;28;20529;-86
2022/11/09 07:46:22;;;;;;;0.60;0.40;;;;;;;;;;4979233;28;20121;-88
2022/11/09 07:48:48;;;;;;;1.55;0.43;;;;;;;;;;4990112;28;20386;-89
2022/11/09 07:51:13;;;;;;;0.30;0.30;;;;;;;;;;5004301;28;20378;-87
2022/11/09 07:53:39;;;;;;;0.30;0.30;;;;;;;;;;4979054;28;20371;-89
2022/11/09 07:56:04;;;;;;;1.08;0.40;;;;;;;;;;4976589;28;20110;-87
2022/11/09 07:58:31;;;;;;;0.45;0.20;;;;;;;;;;4978925;28;20027;-90
2022/11/09 08:00:56;;;;;;;2.80;0.30;;;;;;;;;;4975404;28;20109;-87
2022/11/09 08:03:23;;;;;;;2.05;0.40;;;;;;;;;;4977930;28;20474;-91
2022/11/09 08:05:49;;;;;;;0.80;0.30;;;;;;;;;;4979179;28;20089;-86
2022/11/09 08:08:15;;;;;;;1.23;0.40;;;;;;;;;;4980476;28;20030;-88
2022/11/09 08:10:41;;;;;;;0.30;0.30;;;;;;;;;;4984423;28;20105;-82
2022/11/09 08:13:10;;;;;;;1.48;0.30;;;;;;;;;;4975024;28;20383;-88
2022/11/09 08:15:37;;;;;;;0.25;0.25;;;;;;;;;;4974293;28;20070;-84
2022/11/09 08:18:09;;;;;;;0.30;0.30;;;;;;;;;;4985744;28;20026;-85
2022/11/09 08:20:35;;;;;;;3.25;0.30;;;;;;;;;;4978507;28;20038;-85
2022/11/09 08:23:00;;;;;;;1.58;0.43;;;;;;;;;;4989691;28;20031;-86
2022/11/09 08:25:26;;;;;;;0.80;0.30;;;;;;;;;;4975031;28;20038;-92
2022/11/09 08:27:51;;;;;;;1.08;0.50;;;;;;;;;;4974966;28;20043;-88
2022/11/09 08:30:19;;;;;;;0.75;0.40;;;;;;;;;;4985829;28;20054;-91
2022/11/09 08:32:45;;;;;;;4.22;0.52;;;;;;;;;;4953620;28;20031;-88
2022/11/09 08:35:16;;;;;;;0.30;0.30;;;;;;;;;;4991349;28;20042;-92
2022/11/09 08:37:42;;;;;;;0.30;0.30;;;;;;;;;;5001455;28;20403;-91
2022/11/09 08:40:08;;;;;;;3.10;0.50;;;;;;;;;;4975758;28;20041;-89
2022/11/09 08:42:34;;;;;;;0.50;0.40;;;;;;;;;;4984539;28;20042;-95
2022/11/09 08:44:59;;;;;;;0.35;0.30;;;;;;;;;;4995182;28;20939;-93
2022/11/09 08:47:25;;;;;;;0.30;0.30;;;;;;;;;;4980829;28;20483;-86
2022/11/09 08:49:50;;;;;;;1.73;0.40;;;;;;;;;;4977453;28;20046;-93
2022/11/09 08:52:16;;;;;;;0.40;0.30;;;;;;;;;;4993940;28;20501;-96
2022/11/09 08:54:42;;;;;;;0.38;0.30;;;;;;;;;;4974843;28;20050;-92
2022/11/09 08:57:07;;;;;;;0.60;0.38;;;;;;;;;;4973560;28;20113;-86
2022/11/09 08:59:33;;;;;;;1.88;0.50;;;;;;;;;;4975655;28;20035;-90
2022/11/09 09:01:58;;;;;;;3.13;0.30;;;;;;;;;;4969380;28;20074;-80
2022/11/09 09:04:24;;;;;;;0.52;0.40;;;;;;;;;;4973428;28;20039;-82
2022/11/09 09:06:49;;;;;;;3.97;0.43;;;;;;;;;;4973168;28;20069;-81
2022/11/09 09:09:15;;;;;;;2.80;0.30;;;;;;;;;;4982810;28;20451;-83
2022/11/09 09:11:40;;;;;;;2.65;0.30;;;;;;;;;;4977371;28;20477;-84
2022/11/09 09:14:05;;;;;;;1.38;0.50;;;;;;;;;;4978508;28;20270;-82
2022/11/09 09:16:31;;;;;;;0.73;0.35;;;;;;;;;;4976242;28;20162;-82
2022/11/09 09:18:56;;;;;;;3.40;1.10;;;;;;;;;;4976074;28;20042;-82
2022/11/09 09:21:22;;;;;;;3.03;0.47;;;;;;;;;;4968629;28;20074;-80
2022/11/09 09:23:50;;;;;;;4.57;0.40;;;;;;;;;;4981701;28;20030;-82
2022/11/09 09:26:16;;;;;;;4.50;0.50;;;;;;;;;;4977295;28;20518;-82
2022/11/09 09:28:41;;;;;;;3.58;0.50;;;;;;;;;;4987368;28;20130;-83
2022/11/09 09:31:07;;;;;;;1.27;0.50;;;;;;;;;;4970282;28;20046;-84
2022/11/09 09:33:33;;;;;;;3.03;0.60;;;;;;;;;;4994518;28;20043;-86
2022/11/09 09:35:58;;;;;;;1.10;0.50;;;;;;;;;;4973087;28;20118;-84
2022/11/09 09:38:26;;;;;;;3.85;0.47;;;;;;;;;;4980996;28;20038;-87
2022/11/09 09:40:59;;;;;;;3.97;1.42;;;;;;;;;;4972039;28;20402;-84
2022/11/09 09:43:42;;;;;;;3.20;0.47;;;;;;;;;;4979919;28;20081;-83
2022/11/09 09:46:31;;;;;;;3.20;0.45;;;;;;;;;;4970068;28;20035;-81
2022/11/09 09:49:00;;;;;;;0.68;0.30;;;;;;;;;;4971991;28;20097;-83
2022/11/09 09:51:34;;;;;;;0.82;0.40;;;;;;;;;;4971652;28;20960;-83
2022/11/09 09:54:14;;;;;;;0.82;0.52;;;;;;;;;;4969614;28;20038;-82
2022/11/09 09:56:42;;;;;;;1.98;0.57;;;;;;;;;;4972971;28;20058;-84
2022/11/09 09:59:23;;;;;;;1.23;0.30;;;;;;;;;;4982135;28;20030;-82
2022/11/09 10:01:48;;;;;;;1.73;0.40;;;;;;;;;;4965458;28;20031;-84
2022/11/09 10:04:19;;;;;;;1.70;0.40;;;;;;;;;;4979684;28;20038;-84
2022/11/09 10:06:58;;;;;;;1.35;0.40;;;;;;;;;;4978696;28;20035;-84
2022/11/09 10:09:37;;;;;;;1.80;0.40;;;;;;;;;;4989555;28;20402;-84
2022/11/09 10:12:32;;;;;;;1.38;0.50;;;;;;;;;;4973652;28;20038;-83
2022/11/09 10:15:23;;;;;;;0.85;0.40;;;;;;;;;;4975371;28;20051;-85
2022/11/09 10:17:53;;;;;;;0.82;0.50;;;;;;;;;;4956352;28;20038;-83
2022/11/09 10:20:46;;;;;;;2.95;0.65;;;;;;;;;;4956631;28;20079;-83
2022/11/09 10:23:36;;;;;;;1.48;0.40;;;;;;;;;;4971307;28;20074;-84
2022/11/09 10:26:09;;;;;;;1.58;0.47;;;;;;;;;;4977664;28;20057;-82
2022/11/09 10:28:38;;;;;;;1.02;0.35;;;;;;;;;;4982584;28;20042;-82
2022/11/09 10:31:11;;;;;;;2.28;0.50;;;;;;;;;;4978630;28;20518;-84
2022/11/09 10:33:36;;;;;;;1.08;0.47;;;;;;;;;;4984519;28;20045;-83
2022/11/09 10:36:52;;;;;;;2.88;0.52;;;;;;;;;;4968934;28;20878;-81
2022/11/09 10:39:18;;;;;;;3.85;0.50;;;;;;;;;;4952511;28;20919;-82
2022/11/09 10:41:47;;;;;;;0.90;0.45;;;;;;;;;;4970178;28;20501;-82
2022/11/09 10:44:14;;;;;;;0.60;0.40;;;;;;;;;;4972956;28;20050;-83
2022/11/09 10:47:06;;;;;;;1.25;0.50;;;;;;;;;;4957116;28;20069;-88
2022/11/09 10:49:33;;;;;;;1.40;0.55;;;;;;;;;;4968519;28;20043;-82
2022/11/09 10:51:59;;;;;;;1.40;0.50;;;;;;;;;;4980138;28;20497;-83
2022/11/09 10:54:27;;;;;;;1.83;0.40;;;;;;;;;;4988725;28;20047;-83
2022/11/09 10:57:09;;;;;;;5.90;0.40;;;;;;;;;;4986096;28;20493;-83
2022/11/09 10:59:38;;;;;;;1.05;0.45;;;;;;;;;;4978615;28;20494;-83
2022/11/09 11:02:24;;;;;;;1.20;0.50;;;;;;;;;;4983315;28;20497;-83
2022/11/09 11:05:05;;;;;;;1.95;0.50;;;;;;;;;;4982135;28;20454;-83
2022/11/09 11:07:32;;;;;;;0.70;0.40;;;;;;;;;;4985476;28;20042;-83
2022/11/09 11:10:14;;;;;;;0.98;0.50;;;;;;;;;;4977416;28;20043;-83
2022/11/09 11:13:00;;;;;;;1.13;0.40;;;;;;;;;;4981582;28;20091;-83
2022/11/09 11:15:34;;;;;;;0.52;0.40;;;;;;;;;;4992591;28;20070;-82
2022/11/09 11:18:19;;;;;;;;;;;;;;;;;;4979332;28;20030;-83
2022/11/09 11:20:45;;;;;;;0.40;0.40;;;;;;;;;;4976153;28;19918;-83
2022/11/09 11:23:16;;;;;;;1.67;0.50;;;;;;;;;;4976292;28;20058;-83
2022/11/09 11:26:16;;;;;;;1.13;0.40;;;;;;;;;;4977259;28;20042;-90
2022/11/09 11:29:00;;;;;;;1.55;0.40;;;;;;;;;;4990002;28;20461;-82
2022/11/09 11:31:26;;;;;;;2.10;0.60;;;;;;;;;;4973490;28;20081;-82
2022/11/09 11:33:52;;;;;;;2.00;0.50;;;;;;;;;;4979046;28;20038;-83
2022/11/09 11:36:51;;;;;;;0.55;0.40;;;;;;;;;;4971119;28;20039;-83
2022/11/09 11:39:38;;;;;;;1.77;0.40;;;;;;;;;;4975737;28;20039;-83
2022/11/09 11:42:34;;;;;;;0.60;0.40;;;;;;;;;;4979502;28;20076;-83
2022/11/09 11:45:05;;;;;;;1.20;0.55;;;;;;;;;;4971373;28;20478;-82
2022/11/09 11:47:49;;;;;;;3.50;0.50;;;;;;;;;;4987276;28;20541;-83
2022/11/09 11:50:17;;;;;;;;;;;;;;;;;;4985107;28;20550;-82
2022/11/09 11:52:51;;;;;;;1.02;0.40;;;;;;;;;;4985252;28;19921;-81
2022/11/09 11:55:22;;;;;;;;;;;;;;;;;;4984608;28;20121;-81
2022/11/09 11:58:14;;;;;;;1.08;0.50;;;;;;;;;;4982744;28;19948;-82
2022/11/09 12:00:50;;;;;;;0.88;0.52;;;;;;;;;;4971323;28;20097;-84
2022/11/09 12:03:37;;;;;;;0.60;0.40;;;;;;;;;;4971425;28;20121;-82
2022/11/09 12:06:13;;;;;;;3.92;0.75;;;;;;;;;;4952516;28;20043;-84
2022/11/09 12:09:29;;;;;;;1.25;0.57;;;;;;;;;;4972017;28;20158;-85
2022/11/09 12:12:03;;;;;;;0.88;0.47;;;;;;;;;;4938641;28;20093;-85
2022/11/09 12:14:43;;;;;;;1.48;0.57;;;;;;;;;;4986207;28;20074;-85
2022/11/09 12:17:21;;;;;;;2.25;0.50;;;;;;;;;;4985317;28;20088;-84
2022/11/09 12:19:55;;;;;;;0.77;0.50;;;;;;;;;;4977364;28;20113;-85
2022/11/09 12:22:20;;;;;;;1.33;0.50;;;;;;;;;;4975110;28;20506;-85
2022/11/09 12:24:52;;;;;;;1.00;0.50;;;;;;;;;;4973234;28;20051;-82
2022/11/09 12:27:42;;;;;;;1.17;0.50;;;;;;;;;;4977897;28;20074;-88
2022/11/09 12:30:22;;;;;;;0.63;0.40;;;;;;;;;;4973875;28;20501;-86
2022/11/09 12:33:02;;;;;;;1.10;0.50;;;;;;;;;;4974019;28;20038;-85
2022/11/09 12:35:36;;;;;;;2.15;0.50;;;;;;;;;;4974076;28;20046;-85
2022/11/09 12:38:12;;;;;;;1.73;0.50;;;;;;;;;;4976176;28;20034;-85
2022/11/09 12:40:43;;;;;;;1.23;0.50;;;;;;;;;;4977148;28;20042;-84
2022/11/09 12:43:38;;;;;;;0.80;0.50;;;;;;;;;;4979331;28;20371;-85
2022/11/09 12:46:04;;;;;;;0.50;0.40;;;;;;;;;;4961056;28;20050;-85
2022/11/09 12:48:31;;;;;;;1.83;0.60;;;;;;;;;;4979423;28;20046;-85
2022/11/09 12:50:58;;;;;;;0.47;0.40;;;;;;;;;;4976810;28;20069;-86
2022/11/09 12:53:38;;;;;;;0.65;0.47;;;;;;;;;;4979024;28;20070;-86
2022/11/09 12:56:16;;;;;;;1.77;0.68;;;;;;;;;;4977789;28;20069;-88
2022/11/09 12:58:42;;;;;;;1.63;0.50;;;;;;;;;;4959593;28;20042;-86
2022/11/09 13:01:32;;;;;;;3.08;0.70;;;;;;;;;;4975345;28;20101;-87
2022/11/09 13:03:59;;;;;;;2.88;0.60;;;;;;;;;;4985625;28;20046;-84
2022/11/09 13:06:26;;;;;;;2.22;0.60;;;;;;;;;;4976549;28;20117;-83
2022/11/09 13:09:14;;;;;;;1.17;0.50;;;;;;;;;;4973444;28;20623;-82
2022/11/09 13:11:42;;;;;;;1.48;0.60;;;;;;;;;;4959011;28;20502;-82
2022/11/09 13:14:29;;;;;;;1.50;0.52;;;;;;;;;;4959467;28;20031;-85
2022/11/09 13:16:57;;;;;;;3.38;0.70;;;;;;;;;;4978823;28;20030;-82
2022/11/09 13:19:34;;;;;;;2.67;0.60;;;;;;;;;;4979518;28;20077;-81
2022/11/09 13:22:01;;;;;;;0.85;0.52;;;;;;;;;;4992479;28;20073;-82
2022/11/09 13:24:30;;;;;;;2.15;0.50;;;;;;;;;;4975177;28;20502;-86
2022/11/09 13:27:00;;;;;;;1.48;0.60;;;;;;;;;;4969698;28;20034;-85
2022/11/09 13:29:47;;;;;;;1.25;0.50;;;;;;;;;;4963824;28;20042;-90
2022/11/09 13:32:12;;;;;;;1.38;0.60;;;;;;;;;;4973407;28;20049;-92
2022/11/09 13:34:49;;;;;;;1.33;0.50;;;;;;;;;;4974464;28;20066;-90
2022/11/09 13:37:37;;;;;;;1.55;0.50;;;;;;;;;;4967380;28;20030;-83
2022/11/09 13:40:30;;;;;;;1.52;0.70;;;;;;;;;;4954729;28;20133;-81
2022/11/09 13:43:07;;;;;;;1.35;0.60;;;;;;;;;;4961508;28;20077;-82
2022/11/09 13:45:59;;;;;;;1.85;0.60;;;;;;;;;;4967894;28;20035;-82
2022/11/09 13:48:24;;;;;;;0.47;0.38;;;;;;;;;;4977444;28;20037;-86
2022/11/09 13:50:54;;;;;;;1.23;0.60;;;;;;;;;;4973648;28;20104;-82
2022/11/09 13:53:26;;;;;;;1.45;0.63;;;;;;;;;;4970857;28;20074;-83
2022/11/09 13:55:52;;;;;;;1.05;0.52;;;;;;;;;;4969654;28;20070;-84
2022/11/09 13:58:26;;;;;;;2.17;0.80;;;;;;;;;;4986672;28;20058;-80
2022/11/09 14:00:51;;;;;;;1.35;0.50;;;;;;;;;;5003620;28;20097;-80
2022/11/09 14:03:19;;;;;;;2.13;0.77;;;;;;;;;;5005837;28;20046;-78
2022/11/09 14:05:48;;;;;;;3.13;0.57;;;;;;;;;;4973816;28;20038;-79
2022/11/09 14:08:22;;;;;;;1.20;0.60;;;;;;;;;;4971198;28;20118;-78
2022/11/09 14:10:53;;;;;;;3.22;0.52;;;;;;;;;;4972974;28;20062;-81
2022/11/09 14:13:50;;;;;;;1.63;0.70;;;;;;;;;;4982459;28;20042;-82
2022/11/09 14:16:27;;;;;;;1.33;0.40;;;;;;;;;;4967217;28;20046;-83
2022/11/09 14:18:52;;;;;;;1.27;0.60;;;;;;;;;;4971022;28;20113;-79
2022/11/09 14:21:36;;;;;;;0.70;0.50;;;;;;;;;;4972343;28;20068;-79
2022/11/09 14:24:13;;;;;;;3.28;0.55;;;;;;;;;;4972713;28;20116;-79
2022/11/09 14:26:38;;;;;;;0.80;0.50;;;;;;;;;;4980496;28;20043;-79
2022/11/09 14:29:21;;;;;;;1.50;0.50;;;;;;;;;;4982476;28;20533;-79
2022/11/09 14:31:46;;;;;;;1.20;0.65;;;;;;;;;;4988519;28;20050;-79
2022/11/09 14:34:14;;;;;;;0.40;0.40;;;;;;;;;;4984429;28;20065;-80
2022/11/09 14:36:40;;;;;;;0.68;0.50;;;;;;;;;;4973282;28;20034;-83
2022/11/09 14:39:18;;;;;;;2.10;0.55;;;;;;;;;;4974263;28;20026;-79
2022/11/09 14:41:43;;;;;;;0.73;0.50;;;;;;;;;;4987680;28;20043;-82
2022/11/09 14:44:15;;;;;;;0.98;0.50;;;;;;;;;;4976113;28;20041;-79
2022/11/09 14:46:41;;;;;;;1.50;0.70;;;;;;;;;;4976082;28;20129;-80
2022/11/09 14:49:08;;;;;;;1.17;0.60;;;;;;;;;;4986366;28;20554;-79
2022/11/09 14:51:37;;;;;;;0.57;0.47;;;;;;;;;;4973461;28;20410;-80
2022/11/09 14:54:06;;;;;;;1.60;0.60;;;;;;;;;;4981162;28;20146;-79
2022/11/09 14:56:32;;;;;;;1.63;0.70;;;;;;;;;;4981851;28;20042;-79
2022/11/09 14:59:00;;;;;;;0.70;0.47;;;;;;;;;;4980736;28;20398;-80
2022/11/09 15:01:27;;;;;;;1.45;0.85;;;;;;;;;;4972278;28;20563;-80